Ixworth, United Kingdom
Current Conditions -  °F | °C
As of 4:21 AM on Friday 28 Nov 2014 (Local Time) from EGUL Reporting Station
Overcast Overcast  
Wind Chill: 50°   Ceiling: 1600
Heat Index: 50°   Visibility: 6mi
Dew Point: 50°   Wind: 7mph
Humidity: 100%   Direction: 70°ENE
Pressure: 29.62"   Gusts: NA
Location:  52.3°N, 0.83°E
Report Text: EGUL 280421Z AUTO 07006KT 9999 FEW009 BKN016 OVC023 10/10 A2962 RMK AO2 CIG 011V016
Loading
Personal Weather Stations






























Interactive Weather Map New forecast layout! Learn more

10-Day Weather Forecast

Advertisements
Track Severe Weather on mobile